Time;durP1;ratioP1;P1;durP2;ratioP2;P2;SDS_P1;SDS_P2;PMS_P1;PMS_P2;Temp;Humidity;BMP_temperature;BMP_pressure;BME280_temperature;BME280_humidity;BME280_pressure;Samples;Min_cycle;Max_cycle;Signal;HPM_P1;HPM_P2
2022/04/07 00:00:44;;;;;;;23.20;3.60;;;10.30;99.90;;;;;;5051206;28;20029;-74
2022/04/07 00:03:10;;;;;;;29.70;3.67;;;10.30;99.90;;;;;;5049827;28;20669;-73
2022/04/07 00:05:36;;;;;;;23.05;3.58;;;10.30;99.90;;;;;;5050931;28;20037;-73
2022/04/07 00:08:01;;;;;;;18.00;3.08;;;10.30;99.90;;;;;;5050930;28;20025;-73
2022/04/07 00:10:27;;;;;;;30.42;4.30;;;10.30;99.90;;;;;;5050927;28;20303;-73
2022/04/07 00:12:52;;;;;;;24.65;3.53;;;10.40;99.90;;;;;;5050745;28;20029;-73
2022/04/07 00:15:18;;;;;;;22.83;4.10;;;10.40;99.90;;;;;;5050712;28;20029;-73
2022/04/07 00:17:43;;;;;;;17.73;3.22;;;10.40;99.90;;;;;;5049841;28;20049;-73
2022/04/07 00:20:09;;;;;;;19.48;3.53;;;10.50;99.90;;;;;;5051005;28;20033;-73
2022/04/07 00:22:35;;;;;;;20.70;3.10;;;10.50;99.90;;;;;;5050734;28;20028;-73
2022/04/07 00:25:02;;;;;;;21.10;3.17;;;10.50;99.90;;;;;;5050897;28;20032;-73
2022/04/07 00:27:28;;;;;;;20.85;3.35;;;10.50;99.90;;;;;;5051155;28;20024;-74
2022/04/07 00:29:53;;;;;;;22.58;3.20;;;10.50;99.90;;;;;;5050694;28;20033;-73
2022/04/07 00:32:19;;;;;;;26.35;3.35;;;10.50;99.90;;;;;;5050410;28;20383;-73
2022/04/07 00:34:46;;;;;;;24.60;3.47;;;10.50;99.90;;;;;;5051006;28;20099;-73
2022/04/07 00:37:12;;;;;;;22.33;3.60;;;10.50;99.90;;;;;;5050872;28;20017;-73
2022/04/07 00:39:38;;;;;;;25.42;3.78;;;10.50;99.90;;;;;;5050421;28;20548;-73
2022/04/07 00:42:04;;;;;;;22.08;3.95;;;10.50;99.90;;;;;;5050298;28;20036;-73
2022/04/07 00:44:30;;;;;;;28.92;4.30;;;10.50;99.90;;;;;;5050384;28;20051;-74
2022/04/07 00:46:55;;;;;;;25.58;4.00;;;10.50;99.90;;;;;;5050031;28;21134;-74
2022/04/07 00:49:21;;;;;;;25.00;4.53;;;10.40;99.90;;;;;;5050545;28;20074;-73
2022/04/07 00:51:49;;;;;;;23.92;3.92;;;10.40;99.90;;;;;;5050177;28;20040;-73
2022/04/07 00:54:16;;;;;;;25.05;3.78;;;10.40;99.90;;;;;;5050875;28;20120;-73
2022/04/07 00:56:43;;;;;;;28.23;4.20;;;10.40;99.90;;;;;;5050051;28;20029;-73
2022/04/07 00:59:16;;;;;;;25.95;3.67;;;10.40;99.90;;;;;;5050142;28;20095;-73
2022/04/07 01:01:41;;;;;;;31.23;4.03;;;10.40;99.90;;;;;;5047233;28;20098;-73
2022/04/07 01:04:07;;;;;;;19.38;4.15;;;10.40;99.90;;;;;;5050522;28;20025;-74
2022/04/07 01:06:33;;;;;;;25.73;3.70;;;10.40;99.90;;;;;;5049966;28;20060;-74
2022/04/07 01:09:00;;;;;;;28.15;4.75;;;10.40;99.90;;;;;;5050061;28;20025;-74
2022/04/07 01:11:29;;;;;;;29.30;4.55;;;10.40;99.90;;;;;;5049860;28;20041;-73
2022/04/07 01:13:54;;;;;;;28.17;4.43;;;10.40;99.90;;;;;;5050360;28;20052;-73
2022/04/07 01:16:26;;;;;;;26.00;3.85;;;10.30;99.90;;;;;;5056174;28;20049;-73
2022/04/07 01:18:51;;;;;;;29.30;5.05;;;10.30;99.90;;;;;;5073989;28;20036;-73
2022/04/07 01:21:17;;;;;;;27.52;4.20;;;10.30;99.90;;;;;;5073778;28;20029;-73
2022/04/07 01:23:56;;;;;;;28.70;4.72;;;10.30;99.90;;;;;;5073943;28;20443;-74
2022/04/07 01:26:22;;;;;;;32.30;4.65;;;10.30;99.90;;;;;;5074237;28;20353;-73
2022/04/07 01:28:49;;;;;;;33.63;5.25;;;10.30;99.90;;;;;;5061893;28;20099;-73
2022/04/07 01:31:14;;;;;;;35.90;4.85;;;10.30;99.90;;;;;;5065609;28;20063;-73
2022/04/07 01:33:41;;;;;;;28.75;4.15;;;10.20;99.90;;;;;;5073888;28;20071;-73
2022/04/07 01:36:07;;;;;;;28.55;4.88;;;10.20;99.90;;;;;;5073541;28;20035;-73
2022/04/07 01:38:32;;;;;;;27.42;4.65;;;10.20;99.90;;;;;;5073828;28;20660;-74
2022/04/07 01:40:58;;;;;;;36.78;5.10;;;10.30;99.90;;;;;;5073695;28;20064;-73
2022/04/07 01:43:24;;;;;;;31.35;4.55;;;10.30;99.90;;;;;;5073756;28;20032;-73
2022/04/07 01:45:51;;;;;;;41.35;5.82;;;10.30;99.90;;;;;;5066746;28;20151;-74
2022/04/07 01:48:18;;;;;;;32.67;4.78;;;10.30;99.90;;;;;;5067720;28;20029;-74
2022/04/07 01:50:46;;;;;;;31.85;4.72;;;10.20;99.90;;;;;;5073229;28;20079;-74
2022/04/07 01:53:12;;;;;;;40.30;5.20;;;10.20;99.90;;;;;;5072976;28;20031;-74
2022/04/07 01:55:39;;;;;;;33.78;4.65;;;10.20;99.90;;;;;;5073585;28;20028;-73
2022/04/07 01:58:05;;;;;;;34.90;4.63;;;10.20;99.90;;;;;;5073012;28;20527;-74
2022/04/07 02:00:31;;;;;;;29.83;4.90;;;10.30;99.90;;;;;;5073176;28;20064;-74
2022/04/07 02:02:56;;;;;;;42.13;5.32;;;10.30;99.90;;;;;;5072833;28;20028;-73
2022/04/07 02:05:22;;;;;;;38.17;5.30;;;10.30;99.90;;;;;;5073512;28;20078;-74
2022/04/07 02:07:47;;;;;;;36.40;5.20;;;10.30;99.90;;;;;;5072918;28;20021;-74
2022/04/07 02:10:14;;;;;;;28.67;4.55;;;10.40;99.90;;;;;;5073429;28;20040;-73
2022/04/07 02:12:41;;;;;;;30.70;4.95;;;10.40;99.90;;;;;;5073267;28;20013;-73
2022/04/07 02:15:09;;;;;;;33.17;4.88;;;10.40;99.90;;;;;;5073057;28;20056;-73
2022/04/07 02:17:35;;;;;;;37.80;5.35;;;10.50;99.90;;;;;;5054792;28;20049;-73
2022/04/07 02:20:03;;;;;;;44.05;5.40;;;10.40;99.90;;;;;;5072802;28;20032;-73
2022/04/07 02:22:28;;;;;;;34.78;4.90;;;10.40;99.90;;;;;;5073209;28;20035;-74
2022/04/07 02:24:55;;;;;;;41.13;5.70;;;10.40;99.90;;;;;;5072851;28;20025;-74
2022/04/07 02:27:21;;;;;;;38.70;5.10;;;10.40;99.90;;;;;;5073224;28;20049;-73
2022/04/07 02:29:47;;;;;;;37.80;5.28;;;10.40;99.90;;;;;;5073723;28;20028;-73
2022/04/07 02:32:12;;;;;;;35.03;4.43;;;10.40;99.90;;;;;;5073076;28;20035;-74
2022/04/07 02:34:39;;;;;;;42.78;5.70;;;10.40;99.90;;;;;;5072976;28;20070;-73
2022/04/07 02:37:04;;;;;;;36.10;5.57;;;10.40;99.90;;;;;;5072668;28;20082;-73
2022/04/07 02:39:30;;;;;;;40.92;5.43;;;10.40;99.90;;;;;;5072185;28;20060;-74
2022/04/07 02:41:55;;;;;;;37.85;5.35;;;10.40;99.90;;;;;;5072469;28;20077;-73
2022/04/07 02:44:22;;;;;;;38.60;5.70;;;10.40;99.90;;;;;;5072743;28;20059;-74
2022/04/07 02:46:47;;;;;;;32.85;4.80;;;10.40;99.90;;;;;;5070915;28;20056;-73
2022/04/07 02:49:13;;;;;;;33.28;5.13;;;10.40;99.90;;;;;;5072643;28;20428;-74
2022/04/07 02:51:38;;;;;;;45.63;6.50;;;10.40;99.90;;;;;;5072527;28;20407;-73
2022/04/07 02:54:04;;;;;;;38.50;5.43;;;10.40;99.90;;;;;;5072511;28;20021;-73
2022/04/07 02:56:30;;;;;;;35.70;4.72;;;10.40;99.90;;;;;;5072572;28;20033;-73
2022/04/07 02:58:56;;;;;;;40.33;5.40;;;10.30;99.90;;;;;;5072336;28;20027;-73
2022/04/07 03:01:21;;;;;;;38.97;5.85;;;10.30;99.90;;;;;;5072395;28;20037;-74
2022/04/07 03:03:55;;;;;;;36.28;5.43;;;10.30;99.90;;;;;;5072711;28;20043;-74
2022/04/07 03:06:21;;;;;;;36.63;5.30;;;10.30;99.90;;;;;;5072732;28;20305;-74
2022/04/07 03:08:47;;;;;;;34.38;5.30;;;10.30;99.90;;;;;;5072475;28;20035;-73
2022/04/07 03:11:13;;;;;;;33.50;5.28;;;10.30;99.90;;;;;;5072654;28;20028;-73
2022/04/07 03:13:39;;;;;;;30.35;5.15;;;10.30;99.90;;;;;;5072012;28;20462;-73
2022/04/07 03:16:06;;;;;;;43.13;6.25;;;10.30;99.90;;;;;;5053847;28;20020;-74
2022/04/07 03:18:32;;;;;;;41.53;5.32;;;10.30;99.90;;;;;;5072187;28;20091;-73
2022/04/07 03:20:58;;;;;;;36.13;5.07;;;10.30;99.90;;;;;;5071885;28;20060;-73
2022/04/07 03:23:23;;;;;;;35.55;5.28;;;10.30;99.90;;;;;;5072109;28;20420;-73
2022/04/07 03:25:49;;;;;;;32.10;5.00;;;10.30;99.90;;;;;;5071920;28;20407;-73
2022/04/07 03:28:15;;;;;;;35.95;5.05;;;10.20;99.90;;;;;;5071621;28;20063;-73
2022/04/07 03:30:40;;;;;;;40.67;5.30;;;10.20;99.90;;;;;;5071713;28;20035;-74
2022/04/07 03:33:06;;;;;;;31.35;5.13;;;10.10;99.90;;;;;;5071653;28;20025;-73
2022/04/07 03:35:32;;;;;;;29.70;4.20;;;10.10;99.90;;;;;;5071862;28;20045;-73
2022/04/07 03:37:58;;;;;;;33.08;4.63;;;10.00;99.90;;;;;;5071248;28;20469;-74
2022/04/07 03:40:25;;;;;;;28.25;4.72;;;10.00;99.90;;;;;;5071608;28;20094;-74
2022/04/07 03:42:51;;;;;;;32.17;4.60;;;10.00;99.90;;;;;;5071913;28;20103;-74
2022/04/07 03:45:17;;;;;;;37.83;4.95;;;10.00;99.90;;;;;;5071209;28;20103;-73
2022/04/07 03:47:42;;;;;;;31.08;4.93;;;10.00;99.90;;;;;;5071611;28;20104;-73
2022/04/07 03:50:08;;;;;;;21.73;4.03;;;10.00;99.90;;;;;;5053414;28;20078;-73
2022/04/07 03:52:34;;;;;;;20.17;3.88;;;10.00;99.90;;;;;;5071461;28;20086;-73
2022/04/07 03:54:59;;;;;;;27.95;4.35;;;10.00;99.90;;;;;;5071653;28;20065;-73
2022/04/07 03:57:25;;;;;;;32.33;3.90;;;10.00;99.90;;;;;;5071273;28;20024;-73
2022/04/07 03:59:50;;;;;;;24.75;3.35;;;10.00;99.90;;;;;;5070869;28;20036;-74
2022/04/07 04:02:16;;;;;;;30.67;4.13;;;10.00;99.90;;;;;;5071179;28;20074;-73
2022/04/07 04:04:41;;;;;;;23.85;3.88;;;10.00;99.90;;;;;;5071247;28;20108;-73
2022/04/07 04:07:07;;;;;;;25.55;3.72;;;10.10;99.90;;;;;;5071071;28;20090;-73
2022/04/07 04:09:33;;;;;;;28.75;3.78;;;10.10;99.90;;;;;;5070474;28;20063;-74
2022/04/07 04:11:59;;;;;;;26.15;3.67;;;10.10;99.90;;;;;;5071231;28;20037;-73
2022/04/07 04:14:25;;;;;;;25.05;3.90;;;10.10;99.90;;;;;;5063467;28;20071;-74
2022/04/07 04:16:50;;;;;;;32.70;4.28;;;10.10;99.90;;;;;;5069251;28;20123;-75
2022/04/07 04:19:16;;;;;;;25.13;3.58;;;10.10;99.90;;;;;;5068865;28;20064;-73
2022/04/07 04:21:42;;;;;;;19.30;3.28;;;10.10;99.90;;;;;;5065996;28;20566;-74
2022/04/07 04:24:10;;;;;;;24.90;3.50;;;10.00;99.90;;;;;;5051635;28;20031;-73
2022/04/07 04:26:36;;;;;;;24.17;3.42;;;10.00;99.90;;;;;;5059012;28;20016;-73
2022/04/07 04:29:02;;;;;;;17.55;3.00;;;10.00;99.90;;;;;;5069994;28;20495;-73
2022/04/07 04:31:27;;;;;;;17.38;3.13;;;10.00;99.90;;;;;;5066592;28;20028;-73
2022/04/07 04:33:54;;;;;;;20.15;3.30;;;10.00;99.90;;;;;;5065770;28;20095;-74
2022/04/07 04:36:20;;;;;;;16.15;3.00;;;10.00;99.90;;;;;;5057041;28;20503;-73
2022/04/07 04:38:46;;;;;;;22.98;2.92;;;10.00;99.90;;;;;;5055822;28;20024;-73
2022/04/07 04:41:11;;;;;;;15.82;3.08;;;9.90;99.90;;;;;;5055803;28;20072;-73
2022/04/07 04:43:37;;;;;;;17.65;2.88;;;9.90;99.90;;;;;;5051820;28;20017;-73
2022/04/07 04:46:03;;;;;;;20.02;3.17;;;9.90;99.90;;;;;;5052577;28;20106;-73
2022/04/07 04:48:29;;;;;;;20.75;2.70;;;9.90;99.90;;;;;;5052191;28;20178;-73
2022/04/07 04:50:57;;;;;;;24.40;3.20;;;9.80;99.90;;;;;;5058629;28;20115;-73
2022/04/07 04:53:23;;;;;;;20.13;2.78;;;9.80;99.90;;;;;;5052987;28;20025;-73
2022/04/07 04:55:49;;;;;;;19.08;2.67;;;9.80;99.90;;;;;;5054677;28;20032;-73
2022/04/07 04:58:15;;;;;;;20.30;2.78;;;9.70;99.90;;;;;;5062971;28;20039;-73
2022/04/07 05:00:41;;;;;;;15.32;2.80;;;9.70;99.90;;;;;;5061931;28;20106;-73
2022/04/07 05:03:07;;;;;;;18.15;3.15;;;9.70;99.90;;;;;;5056495;28;20021;-73
2022/04/07 05:05:32;;;;;;;17.45;2.70;;;9.70;99.90;;;;;;5067435;28;20028;-73
2022/04/07 05:07:58;;;;;;;16.25;2.67;;;9.70;99.90;;;;;;5062395;28;20023;-73
2022/04/07 05:10:25;;;;;;;22.67;3.17;;;9.70;99.90;;;;;;5060091;28;20028;-72
2022/04/07 05:12:51;;;;;;;13.23;2.20;;;9.70;99.90;;;;;;5051294;28;20065;-72
2022/04/07 05:15:17;;;;;;;13.25;2.20;;;9.70;99.90;;;;;;5068982;28;20249;-73
2022/04/07 05:17:47;;;;;;;12.43;2.33;;;9.70;99.90;;;;;;5043540;28;20037;-72
2022/04/07 05:20:13;;;;;;;11.20;2.35;;;9.70;99.90;;;;;;5033399;28;20541;-73
2022/04/07 05:22:38;;;;;;;18.70;2.42;;;9.70;99.90;;;;;;5036359;28;20108;-73
2022/04/07 05:25:05;;;;;;;3.78;1.25;;;9.70;99.90;;;;;;5036516;28;20336;-74
2022/04/07 05:27:32;;;;;;;4.60;1.00;;;9.60;99.90;;;;;;5034671;28;20034;-73
2022/04/07 05:29:59;;;;;;;8.10;1.67;;;9.00;99.90;;;;;;5052385;28;20068;-74
2022/04/07 05:32:25;;;;;;;8.40;1.45;;;8.50;99.90;;;;;;5062113;28;20029;-73
2022/04/07 05:34:51;;;;;;;5.00;1.13;;;7.90;99.90;;;;;;5058467;28;20025;-75
2022/04/07 05:37:17;;;;;;;6.00;1.20;;;7.30;99.90;;;;;;5054354;28;20022;-74
2022/04/07 05:39:43;;;;;;;7.00;1.40;;;7.00;99.90;;;;;;5050988;28;20028;-74
2022/04/07 05:42:08;;;;;;;10.75;1.83;;;6.80;99.90;;;;;;5056270;28;20033;-74
2022/04/07 05:44:34;;;;;;;11.05;1.55;;;6.80;99.90;;;;;;5052619;28;20032;-74
2022/04/07 05:46:59;;;;;;;16.02;2.33;;;6.70;99.90;;;;;;5051524;28;20036;-74
2022/04/07 05:49:25;;;;;;;20.10;2.40;;;6.70;99.90;;;;;;5047261;28;20104;-74
2022/04/07 05:51:54;;;;;;;22.05;2.50;;;6.70;99.90;;;;;;5041176;28;20026;-74
2022/04/07 05:54:20;;;;;;;22.25;2.80;;;6.70;99.90;;;;;;5037589;28;20544;-74
2022/04/07 05:56:46;;;;;;;16.98;2.50;;;6.70;99.90;;;;;;5045447;28;20070;-74
2022/04/07 05:59:11;;;;;;;22.45;2.60;;;6.70;99.90;;;;;;5047141;28;20473;-74
2022/04/07 06:01:37;;;;;;;17.02;2.20;;;6.70;99.90;;;;;;5050753;28;20037;-74
2022/04/07 06:04:02;;;;;;;23.52;3.00;;;6.80;99.90;;;;;;5054364;28;20087;-74
2022/04/07 06:06:28;;;;;;;20.23;2.92;;;6.80;99.90;;;;;;5040811;28;20381;-75
2022/04/07 06:08:54;;;;;;;17.33;2.63;;;6.80;99.90;;;;;;5051686;28;20033;-75
2022/04/07 06:11:20;;;;;;;21.90;2.67;;;6.90;99.90;;;;;;5055448;28;20037;-74
2022/04/07 06:13:46;;;;;;;22.08;2.40;;;6.90;99.90;;;;;;5055169;28;20025;-74
2022/04/07 06:16:12;;;;;;;18.95;2.53;;;7.00;99.90;;;;;;5055973;28;20361;-74
2022/04/07 06:18:37;;;;;;;15.73;2.03;;;7.00;99.90;;;;;;5075555;28;20048;-74
2022/04/07 06:21:03;;;;;;;18.35;1.77;;;7.00;99.90;;;;;;5074573;28;20033;-74
2022/04/07 06:23:31;;;;;;;14.80;2.08;;;7.00;99.90;;;;;;5074285;28;20145;-75
2022/04/07 06:25:57;;;;;;;8.30;1.60;;;7.10;99.90;;;;;;5074432;28;20021;-74
2022/04/07 06:28:22;;;;;;;8.98;1.80;;;7.10;99.90;;;;;;5074340;28;20027;-74
2022/04/07 06:30:51;;;;;;;11.05;1.63;;;7.10;99.90;;;;;;5073629;28;20028;-74
2022/04/07 06:33:18;;;;;;;11.45;1.42;;;7.10;99.90;;;;;;5068835;28;20020;-74
2022/04/07 06:35:43;;;;;;;11.90;1.60;;;7.10;99.90;;;;;;5073602;28;20024;-74
2022/04/07 06:38:09;;;;;;;14.80;1.50;;;7.10;99.90;;;;;;5074355;28;20025;-74
2022/04/07 06:40:34;;;;;;;12.18;1.67;;;7.10;99.90;;;;;;5073515;28;20107;-74
2022/04/07 06:43:00;;;;;;;10.90;1.30;;;7.10;99.90;;;;;;5074245;28;20104;-74
2022/04/07 06:45:27;;;;;;;8.73;1.45;;;7.10;99.90;;;;;;5073429;28;20461;-74
2022/04/07 06:47:53;;;;;;;9.25;1.80;;;7.10;99.90;;;;;;5068402;28;20029;-74
2022/04/07 06:50:20;;;;;;;9.30;1.40;;;7.10;99.90;;;;;;5069248;28;20072;-74
2022/04/07 06:52:46;;;;;;;4.07;1.70;;;7.10;99.90;;;;;;5074337;28;20023;-75
2022/04/07 06:55:13;;;;;;;7.75;1.40;;;7.10;99.90;;;;;;5074130;28;20104;-75
2022/04/07 06:57:54;;;;;;;10.57;1.90;;;7.10;99.90;;;;;;5072335;28;20021;-74
2022/04/07 07:00:22;;;;;;;10.55;1.50;;;7.20;99.90;;;;;;5057241;28;20037;-74
2022/04/07 07:02:52;;;;;;;9.93;1.75;;;7.20;99.90;;;;;;5054912;28;20550;-74
2022/04/07 07:05:18;;;;;;;9.50;1.40;;;7.20;99.90;;;;;;5065220;28;20074;-74
2022/04/07 07:07:44;;;;;;;9.32;1.50;;;7.20;99.90;;;;;;5065774;28;20350;-74
2022/04/07 07:10:11;;;;;;;14.77;1.88;;;7.20;99.90;;;;;;5066984;28;20032;-74
2022/04/07 07:12:37;;;;;;;10.73;1.35;;;7.30;99.90;;;;;;5069757;28;20024;-74
2022/04/07 07:15:03;;;;;;;7.28;1.40;;;7.30;99.90;;;;;;5057593;28;20048;-74
2022/04/07 07:17:33;;;;;;;8.90;1.55;;;7.30;99.90;;;;;;5045558;28;20535;-74
2022/04/07 07:20:06;;;;;;;12.23;1.70;;;7.30;99.90;;;;;;5062734;28;20037;-74
2022/04/07 07:22:31;;;;;;;8.75;1.38;;;7.30;99.90;;;;;;5063477;28;20029;-74
2022/04/07 07:24:58;;;;;;;10.40;1.48;;;7.30;99.90;;;;;;5056260;28;20021;-74
2022/04/07 07:27:23;;;;;;;10.57;1.42;;;7.40;99.90;;;;;;5062154;28;20374;-74
2022/04/07 07:29:50;;;;;;;10.57;1.83;;;7.40;99.90;;;;;;5057561;28;20032;-75
2022/04/07 07:32:15;;;;;;;10.45;1.27;;;7.40;99.90;;;;;;5062015;28;20033;-74
2022/04/07 07:34:41;;;;;;;11.77;1.60;;;7.50;99.90;;;;;;5052465;28;20380;-74
2022/04/07 07:37:06;;;;;;;17.55;1.48;;;7.50;99.90;;;;;;5052320;28;20477;-74
2022/04/07 07:39:32;;;;;;;12.30;1.45;;;7.60;99.90;;;;;;5051730;28;20453;-74
2022/04/07 07:41:57;;;;;;;11.23;1.50;;;7.60;99.90;;;;;;5060049;28;20035;-74
2022/04/07 07:44:24;;;;;;;7.38;1.45;;;7.60;99.90;;;;;;5065047;28;20032;-74
2022/04/07 07:46:50;;;;;;;6.22;1.58;;;7.70;99.90;;;;;;5070327;28;20021;-74
2022/04/07 07:49:16;;;;;;;11.43;1.58;;;7.70;99.90;;;;;;5067595;28;20031;-74
2022/04/07 07:51:42;;;;;;;11.35;1.35;;;7.80;99.90;;;;;;5071379;28;20029;-74
2022/04/07 07:54:07;;;;;;;8.48;1.30;;;7.80;99.90;;;;;;5069592;28;20024;-74
2022/04/07 07:56:33;;;;;;;12.00;1.63;;;7.80;99.90;;;;;;5063001;28;20460;-74
2022/04/07 07:58:59;;;;;;;9.55;1.20;;;7.80;99.90;;;;;;5065165;28;20478;-74
2022/04/07 08:01:24;;;;;;;11.05;1.80;;;7.90;99.90;;;;;;5071307;28;20036;-74
2022/04/07 08:03:50;;;;;;;13.45;1.42;;;8.00;99.90;;;;;;5071927;28;20043;-74
2022/04/07 08:06:16;;;;;;;9.75;1.52;;;8.10;99.90;;;;;;5070844;28;20138;-75
2022/04/07 08:08:41;;;;;;;11.82;1.58;;;8.20;99.90;;;;;;5051492;28;20025;-74
2022/04/07 08:11:07;;;;;;;7.75;1.50;;;8.30;99.90;;;;;;5051436;28;20032;-74
2022/04/07 08:13:32;;;;;;;11.45;1.30;;;8.40;99.90;;;;;;5051351;28;20021;-74
2022/04/07 08:15:58;;;;;;;11.55;1.98;;;8.50;99.90;;;;;;5050984;28;20421;-74
2022/04/07 08:18:23;;;;;;;7.53;1.50;;;8.60;99.90;;;;;;5050901;28;20409;-74
2022/04/07 08:20:49;;;;;;;13.98;1.45;;;8.80;99.90;;;;;;5050976;28;20385;-75
2022/04/07 08:23:15;;;;;;;11.65;1.60;;;8.90;99.90;;;;;;5055646;28;20035;-74
2022/04/07 08:25:41;;;;;;;11.93;1.90;;;9.00;99.90;;;;;;5067266;28;20032;-74
2022/04/07 08:28:06;;;;;;;9.88;1.40;;;9.10;99.90;;;;;;5071278;28;20028;-74
2022/04/07 08:30:34;;;;;;;16.20;2.20;;;9.20;99.90;;;;;;5067754;28;20515;-74
2022/04/07 08:33:01;;;;;;;16.90;2.03;;;9.30;99.90;;;;;;5061880;28;20031;-74
2022/04/07 08:35:26;;;;;;;15.98;2.10;;;9.50;99.90;;;;;;5070555;28;20040;-74
2022/04/07 08:37:52;;;;;;;13.82;2.13;;;9.60;99.90;;;;;;5069924;28;20029;-74
2022/04/07 08:40:21;;;;;;;17.08;2.65;;;9.60;99.90;;;;;;5070451;28;20032;-74
2022/04/07 08:42:47;;;;;;;18.77;2.42;;;9.70;99.90;;;;;;5069679;28;20020;-74
2022/04/07 08:45:13;;;;;;;20.77;3.13;;;9.70;99.90;;;;;;5048146;28;20388;-74
2022/04/07 08:47:40;;;;;;;20.50;2.55;;;9.80;99.90;;;;;;5069006;28;20020;-74
2022/04/07 08:50:06;;;;;;;15.23;2.50;;;9.90;99.90;;;;;;5065464;28;20029;-74
2022/04/07 08:52:33;;;;;;;14.20;2.40;;;9.90;99.90;;;;;;5048099;28;20483;-74
2022/04/07 08:54:59;;;;;;;16.52;2.60;;;10.00;99.90;;;;;;5069329;28;20042;-74
2022/04/07 08:57:26;;;;;;;16.30;2.65;;;10.00;99.90;;;;;;5066281;28;20479;-74
2022/04/07 08:59:54;;;;;;;14.63;2.70;;;10.10;99.90;;;;;;5066026;28;20017;-74
2022/04/07 09:02:20;;;;;;;14.93;2.33;;;10.20;99.90;;;;;;5067776;28;20532;-74
2022/04/07 09:04:46;;;;;;;13.68;2.40;;;10.30;99.90;;;;;;5068782;28;20099;-73
2022/04/07 09:07:12;;;;;;;15.60;2.40;;;10.40;99.90;;;;;;5069543;28;20361;-74
2022/04/07 09:09:38;;;;;;;12.57;1.83;;;10.50;99.90;;;;;;5054627;28;20028;-74
2022/04/07 09:12:05;;;;;;;10.45;1.92;;;10.60;99.90;;;;;;5059558;28;20497;-74
2022/04/07 09:14:37;;;;;;;11.63;2.13;;;10.70;99.90;;;;;;5068730;28;20055;-74
2022/04/07 09:17:04;;;;;;;14.93;2.03;;;10.60;99.90;;;;;;5068358;28;20045;-74
2022/04/07 09:19:31;;;;;;;16.17;1.90;;;10.60;99.90;;;;;;5061158;28;20031;-74
2022/04/07 09:22:08;;;;;;;13.32;2.55;;;10.60;99.90;;;;;;5046639;28;20033;-74
2022/04/07 09:24:38;;;;;;;13.95;2.22;;;10.60;99.90;;;;;;5065110;28;20082;-74
2022/04/07 09:27:05;;;;;;;15.50;2.33;;;10.60;99.90;;;;;;5066722;28;20055;-74
2022/04/07 09:29:43;;;;;;;18.17;2.28;;;10.60;99.90;;;;;;5069022;28;20029;-75
2022/04/07 09:32:19;;;;;;;13.63;2.08;;;10.50;99.90;;;;;;5045735;28;20103;-74
2022/04/07 09:35:11;;;;;;;14.88;2.30;;;10.50;99.90;;;;;;5067746;28;20048;-74
2022/04/07 09:37:39;;;;;;;17.27;2.35;;;10.40;99.90;;;;;;5066843;28;20068;-73
2022/04/07 09:40:09;;;;;;;17.33;2.55;;;10.40;99.90;;;;;;5036099;28;20059;-73
2022/04/07 09:42:35;;;;;;;20.55;2.70;;;10.40;99.90;;;;;;5054023;28;20405;-74
2022/04/07 09:45:03;;;;;;;20.58;3.17;;;10.40;99.90;;;;;;5053905;28;20120;-74
2022/04/07 09:47:36;;;;;;;24.88;2.90;;;10.30;99.90;;;;;;5053870;28;20028;-74
2022/04/07 09:50:02;;;;;;;22.88;3.05;;;10.30;99.90;;;;;;5053526;28;20025;-74
2022/04/07 09:52:28;;;;;;;17.45;3.03;;;10.30;99.90;;;;;;5054523;28;20025;-74
2022/04/07 09:55:01;;;;;;;20.15;2.80;;;10.30;99.90;;;;;;5059947;28;20017;-75
2022/04/07 09:57:27;;;;;;;26.55;3.38;;;10.20;99.90;;;;;;5073305;28;20032;-74
2022/04/07 09:59:56;;;;;;;22.90;3.20;;;10.20;99.90;;;;;;5055612;28;20045;-73
2022/04/07 10:02:23;;;;;;;24.33;3.60;;;10.10;99.90;;;;;;5071847;28;20036;-74
2022/04/07 10:04:50;;;;;;;20.77;3.00;;;10.10;99.90;;;;;;5073335;28;20028;-74
2022/04/07 10:07:16;;;;;;;22.58;3.55;;;10.10;99.90;;;;;;5073582;28;20099;-74
2022/04/07 10:09:42;;;;;;;22.30;3.22;;;10.20;99.90;;;;;;5073941;28;20452;-75
2022/04/07 10:12:10;;;;;;;16.52;3.20;;;10.20;99.90;;;;;;5068754;28;20056;-74
2022/04/07 10:14:36;;;;;;;22.67;3.40;;;10.20;99.90;;;;;;5069943;28;20468;-74
2022/04/07 10:17:03;;;;;;;24.83;3.60;;;10.20;99.90;;;;;;5071684;28;20044;-74
2022/04/07 10:19:42;;;;;;;18.63;3.10;;;10.20;99.90;;;;;;5071702;28;20021;-74
2022/04/07 10:22:45;;;;;;;27.88;4.05;;;10.20;99.90;;;;;;5070127;28;20445;-74
2022/04/07 10:25:13;;;;;;;21.88;3.45;;;10.30;99.90;;;;;;5063410;28;20028;-74
2022/04/07 10:27:51;;;;;;;22.40;3.60;;;10.30;99.90;;;;;;5069025;28;20032;-74
2022/04/07 10:30:17;;;;;;;31.58;4.78;;;10.40;99.90;;;;;;5069092;28;20116;-75
2022/04/07 10:32:52;;;;;;;24.13;3.63;;;10.40;99.90;;;;;;5062980;28;20029;-74
2022/04/07 10:35:39;;;;;;;21.50;3.42;;;10.50;99.90;;;;;;5063802;28;20037;-73
2022/04/07 10:38:11;;;;;;;28.30;3.65;;;10.60;99.90;;;;;;5071310;28;20029;-73
2022/04/07 10:40:49;;;;;;;21.75;3.63;;;10.60;99.90;;;;;;5076093;28;20031;-73
2022/04/07 10:43:14;;;;;;;25.17;3.67;;;10.70;99.90;;;;;;5077018;28;20153;-73
2022/04/07 10:45:44;;;;;;;23.85;3.60;;;10.90;99.90;;;;;;5074997;28;20028;-74
2022/04/07 10:48:33;;;;;;;28.08;3.83;;;11.00;99.90;;;;;;5057499;28;20029;-73
2022/04/07 10:51:10;;;;;;;26.75;3.63;;;11.10;99.90;;;;;;5057579;28;20048;-73
2022/04/07 10:53:58;;;;;;;23.45;3.90;;;11.10;99.90;;;;;;5073625;28;20048;-74
2022/04/07 10:56:33;;;;;;;21.00;3.42;;;11.20;99.90;;;;;;5073832;28;20032;-73
2022/04/07 10:59:21;;;;;;;33.23;4.10;;;11.40;99.90;;;;;;5080292;28;20024;-72
2022/04/07 11:01:52;;;;;;;18.20;3.25;;;11.60;99.90;;;;;;5070308;28;20052;-73
2022/04/07 11:04:18;;;;;;;27.63;4.65;;;11.60;99.90;;;;;;5060451;28;20405;-73
2022/04/07 11:07:11;;;;;;;22.35;4.07;;;11.60;99.90;;;;;;5059648;28;20025;-73
2022/04/07 11:09:58;;;;;;;26.90;3.60;;;11.50;99.90;;;;;;5059903;28;20090;-73
2022/04/07 11:12:34;;;;;;;23.58;3.35;;;11.50;99.90;;;;;;5061032;28;20029;-70
2022/04/07 11:15:02;;;;;;;20.27;3.20;;;11.40;99.90;;;;;;5063668;28;20380;-73
2022/04/07 11:17:31;;;;;;;16.83;3.08;;;11.50;99.90;;;;;;5066156;28;20037;-73
2022/04/07 11:20:26;;;;;;;24.00;3.78;;;11.50;99.90;;;;;;5066072;28;20036;-73
2022/04/07 11:22:56;;;;;;;22.85;3.90;;;11.40;99.90;;;;;;5059954;28;20557;-74
2022/04/07 11:25:35;;;;;;;26.95;3.90;;;11.40;99.90;;;;;;5066060;28;20021;-73
2022/04/07 11:28:13;;;;;;;23.83;4.00;;;11.30;99.90;;;;;;5065693;28;20123;-73
2022/04/07 11:30:49;;;;;;;23.42;3.55;;;11.30;99.90;;;;;;5072712;28;20051;-73
2022/04/07 11:33:18;;;;;;;25.60;3.13;;;11.30;99.90;;;;;;5056665;28;20111;-72
2022/04/07 11:36:06;;;;;;;24.23;3.60;;;11.20;99.90;;;;;;5067040;28;20013;-72
2022/04/07 11:38:43;;;;;;;24.02;3.70;;;11.30;99.90;;;;;;5055284;28;20423;-73
2022/04/07 11:41:13;;;;;;;22.90;2.97;;;11.20;99.90;;;;;;5068585;28;20036;-73
2022/04/07 11:43:47;;;;;;;22.70;3.10;;;11.20;99.90;;;;;;5051963;28;20025;-74
2022/04/07 11:46:30;;;;;;;26.17;4.10;;;11.30;99.90;;;;;;5070811;28;20073;-74
2022/04/07 11:48:56;;;;;;;26.90;3.88;;;11.40;99.90;;;;;;5064169;28;20028;-73
2022/04/07 11:51:24;;;;;;;26.25;3.75;;;11.50;99.90;;;;;;5069941;28;20036;-73
2022/04/07 11:53:52;;;;;;;21.95;3.75;;;11.60;99.90;;;;;;5065061;28;20109;-73
2022/04/07 11:56:26;;;;;;;21.23;3.40;;;11.70;99.90;;;;;;5054616;28;20021;-73
2022/04/07 11:58:56;;;;;;;22.80;3.58;;;11.70;99.90;;;;;;5063818;28;20031;-73
2022/04/07 12:01:23;;;;;;;21.73;3.60;;;11.70;99.90;;;;;;5045521;28;20206;-73
2022/04/07 12:03:57;;;;;;;24.58;4.32;;;11.80;99.90;;;;;;5061071;28;20015;-71
2022/04/07 12:06:24;;;;;;;16.10;3.40;;;11.80;99.90;;;;;;5070896;28;20029;-72
2022/04/07 12:08:51;;;;;;;21.35;3.33;;;11.90;99.90;;;;;;5064682;28;20017;-72
2022/04/07 12:11:20;;;;;;;25.35;4.13;;;12.00;99.90;;;;;;5069405;28;20107;-72
2022/04/07 12:13:49;;;;;;;28.90;4.15;;;12.10;99.90;;;;;;5064514;28;20009;-72
2022/04/07 12:16:14;;;;;;;20.85;3.17;;;12.10;99.90;;;;;;5066019;28;20025;-72
2022/04/07 12:18:40;;;;;;;25.30;3.40;;;12.10;99.90;;;;;;5065791;28;20047;-73
2022/04/07 12:21:06;;;;;;;26.98;3.72;;;12.00;99.90;;;;;;5047402;28;20040;-72
2022/04/07 12:23:32;;;;;;;19.60;3.80;;;12.00;99.90;;;;;;5060914;28;20020;-73
2022/04/07 12:25:59;;;;;;;27.92;3.65;;;12.00;99.90;;;;;;5064757;28;20032;-72
2022/04/07 12:28:38;;;;;;;27.13;3.95;;;12.00;99.90;;;;;;5068544;28;20062;-71
2022/04/07 12:31:10;;;;;;;22.27;3.80;;;12.00;99.90;;;;;;5046976;28;20017;-73
2022/04/07 12:33:44;;;;;;;25.88;3.67;;;11.90;99.90;;;;;;5059599;28;20089;-74
2022/04/07 12:36:14;;;;;;;21.97;3.17;;;11.90;99.90;;;;;;5066024;28;20122;-73
2022/04/07 12:38:41;;;;;;;25.10;4.10;;;11.90;99.90;;;;;;5045689;28;20025;-72
2022/04/07 12:41:15;;;;;;;25.65;3.88;;;11.80;99.90;;;;;;5077482;28;20033;-73
2022/04/07 12:43:50;;;;;;;18.50;3.03;;;11.80;99.90;;;;;;5078727;28;20025;-73